Time;durP1;ratioP1;P1;durP2;ratioP2;P2;SDS_P1;SDS_P2;PMS_P1;PMS_P2;Temp;Humidity;BMP_temperature;BMP_pressure;BME280_temperature;BME280_humidity;BME280_pressure;Samples;Min_cycle;Max_cycle;Signal;HPM_P1;HPM_P2
2023/03/16 00:01:49;;;;;;;7.65;3.40;;;27.50;99.90;;;;;;5057443;28;20220;-79
2023/03/16 00:04:20;;;;;;;4.20;3.03;;;27.60;99.90;;;;;;5053316;28;20194;-77
2023/03/16 00:06:51;;;;;;;5.03;3.47;;;27.70;99.90;;;;;;5039276;28;20666;-79
2023/03/16 00:09:30;;;;;;;5.00;2.95;;;27.80;99.90;;;;;;5048464;28;20590;-79
2023/03/16 00:12:01;;;;;;;6.07;3.10;;;28.00;99.90;;;;;;5037621;28;20200;-79
2023/03/16 00:14:34;;;;;;;5.55;3.00;;;28.10;99.90;;;;;;5053181;28;20719;-79
2023/03/16 00:17:07;;;;;;;4.43;3.13;;;28.30;99.90;;;;;;5051250;28;20201;-78
2023/03/16 00:19:38;;;;;;;4.88;2.90;;;28.50;99.90;;;;;;5051987;28;20194;-78
2023/03/16 00:22:09;;;;;;;4.57;2.90;;;28.60;99.90;;;;;;5053445;28;20225;-78
2023/03/16 00:24:41;;;;;;;3.85;2.85;;;28.70;99.90;;;;;;5054325;28;20216;-80
2023/03/16 00:27:14;;;;;;;5.15;2.70;;;28.90;99.90;;;;;;5054719;28;20278;-79
2023/03/16 00:29:47;;;;;;;6.30;3.00;;;29.00;99.90;;;;;;5053234;28;20241;-79
2023/03/16 00:32:22;;;;;;;5.88;3.03;;;29.10;99.90;;;;;;5060478;28;20194;-77
2023/03/16 00:34:53;;;;;;;3.80;2.72;;;29.30;99.90;;;;;;5053235;28;20239;-79
2023/03/16 00:37:25;;;;;;;4.70;2.80;;;29.40;99.90;;;;;;5051633;28;20204;-81
2023/03/16 00:39:57;;;;;;;5.03;2.80;;;29.50;99.90;;;;;;5059013;28;20200;-80
2023/03/16 00:42:30;;;;;;;6.20;2.78;;;29.60;99.90;;;;;;5059248;28;20213;-79
2023/03/16 00:45:01;;;;;;;7.03;3.15;;;29.70;99.90;;;;;;5053189;28;20292;-79
2023/03/16 00:47:35;;;;;;;3.83;2.10;;;29.80;99.90;;;;;;5056766;28;20676;-80
2023/03/16 00:50:07;;;;;;;5.75;2.30;;;29.90;99.90;;;;;;5054213;28;20196;-79
2023/03/16 00:52:39;;;;;;;3.72;2.20;;;30.00;99.90;;;;;;5051476;28;20198;-81
2023/03/16 00:55:11;;;;;;;3.70;2.10;;;30.10;99.90;;;;;;5048467;28;20205;-80
2023/03/16 00:57:42;;;;;;;6.22;2.33;;;30.20;99.90;;;;;;5053751;28;20232;-81
2023/03/16 01:00:15;;;;;;;4.03;2.80;;;30.40;99.90;;;;;;5055426;28;20540;-82
2023/03/16 01:02:48;;;;;;;7.25;2.58;;;30.50;99.90;;;;;;5053815;28;20225;-80
2023/03/16 01:05:20;;;;;;;3.03;2.22;;;30.70;99.90;;;;;;5051953;28;20204;-77
2023/03/16 01:07:51;;;;;;;4.45;2.30;;;30.80;99.90;;;;;;5055879;28;20202;-78
2023/03/16 01:10:22;;;;;;;6.28;2.45;;;30.80;99.90;;;;;;5063070;28;20661;-78
2023/03/16 01:12:54;;;;;;;4.65;2.15;;;31.00;99.90;;;;;;5066365;28;20217;-77
2023/03/16 01:15:26;;;;;;;3.45;2.00;;;31.10;99.90;;;;;;5053365;28;20194;-78
2023/03/16 01:17:59;;;;;;;3.83;2.10;;;31.20;99.90;;;;;;5053845;28;20197;-78
2023/03/16 01:20:32;;;;;;;4.60;2.35;;;31.30;99.90;;;;;;5054010;28;20672;-78
2023/03/16 01:23:03;;;;;;;3.42;2.30;;;31.40;99.90;;;;;;5053009;28;20304;-79
2023/03/16 01:25:34;;;;;;;5.40;2.22;;;31.60;99.90;;;;;;5052070;28;20577;-78
2023/03/16 01:28:05;;;;;;;3.72;2.25;;;31.70;99.90;;;;;;5052744;28;20209;-79
2023/03/16 01:30:36;;;;;;;5.53;2.30;;;31.70;99.90;;;;;;5054309;28;20189;-83
2023/03/16 01:33:09;;;;;;;4.03;1.98;;;31.90;99.90;;;;;;5053451;28;20244;-76
2023/03/16 01:35:40;;;;;;;5.43;2.20;;;32.00;99.90;;;;;;5053124;28;20642;-80
2023/03/16 01:38:11;;;;;;;5.93;2.00;;;32.10;99.90;;;;;;5052309;28;20271;-78
2023/03/16 01:40:42;;;;;;;6.35;2.25;;;32.30;99.90;;;;;;5051641;28;20568;-79
2023/03/16 01:43:14;;;;;;;7.22;2.53;;;32.30;99.90;;;;;;5051571;28;20240;-81
2023/03/16 01:46:16;;;;;;;4.03;2.10;;;32.40;99.90;;;;;;5057997;28;20577;-81
2023/03/16 01:48:58;;;;;;;3.30;2.00;;;32.50;99.90;;;;;;5049973;28;20193;-85
2023/03/16 01:51:33;;;;;;;5.93;2.20;;;32.50;99.90;;;;;;5052287;28;20205;-78
2023/03/16 01:54:08;;;;;;;4.00;2.10;;;32.60;99.90;;;;;;5053919;28;20246;-80
2023/03/16 01:56:43;;;;;;;6.22;2.28;;;32.60;99.90;;;;;;5057936;28;20197;-82
2023/03/16 01:59:17;;;;;;;2.60;1.90;;;32.60;99.90;;;;;;5047263;28;20197;-80
2023/03/16 02:01:50;;;;;;;2.53;2.05;;;32.60;99.90;;;;;;5052214;28;20300;-78
2023/03/16 02:04:34;;;;;;;3.05;1.80;;;32.70;99.90;;;;;;5055513;28;20703;-82
2023/03/16 02:07:06;;;;;;;4.45;1.80;;;32.80;99.90;;;;;;5059334;28;20255;-78
2023/03/16 02:09:41;;;;;;;6.03;2.63;;;32.90;99.90;;;;;;5047905;28;20190;-79
2023/03/16 02:12:16;;;;;;;2.83;1.90;;;32.90;99.90;;;;;;5043879;28;20204;-80
2023/03/16 02:14:48;;;;;;;3.03;1.67;;;32.90;99.90;;;;;;5045605;28;20204;-79
2023/03/16 02:17:22;;;;;;;3.45;1.92;;;33.00;99.90;;;;;;5033277;28;20551;-78
2023/03/16 02:20:04;;;;;;;3.53;1.90;;;33.00;99.90;;;;;;5033746;28;20190;-78
2023/03/16 02:22:36;;;;;;;4.65;1.65;;;33.10;99.90;;;;;;5048808;28;20247;-78
2023/03/16 02:25:07;;;;;;;5.70;1.90;;;33.10;99.90;;;;;;5053787;28;20676;-79
2023/03/16 02:27:47;;;;;;;3.00;1.13;;;33.30;99.90;;;;;;5047623;28;20197;-78
2023/03/16 02:30:20;;;;;;;2.15;1.30;;;33.40;99.90;;;;;;5056459;28;20192;-80
2023/03/16 02:32:55;;;;;;;3.88;1.40;;;33.40;99.90;;;;;;5058626;28;20205;-80
2023/03/16 02:35:26;;;;;;;1.90;1.20;;;33.50;99.90;;;;;;5061295;28;20656;-79
2023/03/16 02:37:57;;;;;;;5.15;1.40;;;33.60;99.90;;;;;;5055553;28;20201;-81
2023/03/16 02:40:30;;;;;;;3.92;1.80;;;33.70;99.90;;;;;;5054499;28;20567;-79
2023/03/16 02:43:05;;;;;;;2.70;1.60;;;33.70;99.90;;;;;;5058122;28;20595;-79
2023/03/16 02:45:41;;;;;;;3.45;1.52;;;33.70;99.90;;;;;;5064146;28;20211;-79
2023/03/16 02:48:16;;;;;;;5.75;1.30;;;33.70;99.90;;;;;;5055991;28;20680;-80
2023/03/16 02:50:49;;;;;;;3.30;1.38;;;33.70;99.90;;;;;;5056317;28;20211;-77
2023/03/16 02:53:20;;;;;;;1.80;1.25;;;33.70;99.90;;;;;;5043658;28;20197;-78
2023/03/16 02:55:51;;;;;;;2.10;1.20;;;33.70;99.90;;;;;;5064089;28;20686;-80
2023/03/16 02:58:23;;;;;;;3.38;1.52;;;33.70;99.90;;;;;;5076592;28;20208;-77
2023/03/16 03:00:56;;;;;;;4.82;1.23;;;33.80;99.90;;;;;;5061641;28;20205;-78
2023/03/16 03:03:27;;;;;;;2.90;1.40;;;33.80;99.90;;;;;;5059076;28;20217;-78
2023/03/16 03:05:58;;;;;;;4.90;1.17;;;33.80;99.90;;;;;;5061482;28;20208;-79
2023/03/16 03:08:31;;;;;;;1.45;1.30;;;33.80;99.90;;;;;;5056107;28;20212;-87
2023/03/16 03:11:02;;;;;;;1.50;1.20;;;33.90;99.90;;;;;;5067137;28;20197;-78
2023/03/16 03:13:33;;;;;;;2.45;1.20;;;33.90;99.90;;;;;;5056615;28;20201;-77
2023/03/16 03:16:07;;;;;;;4.15;1.60;;;33.90;99.90;;;;;;5059100;28;20200;-83
2023/03/16 03:18:38;;;;;;;3.95;1.20;;;34.00;99.90;;;;;;5055147;28;20199;-79
2023/03/16 03:21:09;;;;;;;2.80;1.40;;;34.00;99.90;;;;;;5053314;28;20308;-85
2023/03/16 03:23:40;;;;;;;3.00;1.50;;;34.00;99.90;;;;;;5055339;28;20220;-79
2023/03/16 03:26:11;;;;;;;3.53;1.40;;;34.00;99.90;;;;;;5057451;28;20200;-79
2023/03/16 03:28:42;;;;;;;4.20;1.58;;;34.00;99.90;;;;;;5037151;28;20205;-78
2023/03/16 03:31:19;;;;;;;2.72;1.20;;;34.10;99.90;;;;;;5050892;28;20200;-78
2023/03/16 03:33:52;;;;;;;1.67;1.10;;;34.20;99.90;;;;;;5051269;28;20707;-80
2023/03/16 03:36:23;;;;;;;2.53;1.50;;;34.20;99.90;;;;;;5050937;28;20289;-79
2023/03/16 03:38:55;;;;;;;4.18;1.38;;;34.10;99.90;;;;;;5050484;28;20199;-79
2023/03/16 03:41:26;;;;;;;2.42;1.40;;;34.10;99.90;;;;;;5048411;28;20209;-77
2023/03/16 03:43:57;;;;;;;3.00;1.40;;;34.20;99.90;;;;;;5051639;28;20229;-79
2023/03/16 03:46:30;;;;;;;2.60;1.58;;;34.20;99.90;;;;;;5048272;28;20205;-78
2023/03/16 03:49:04;;;;;;;1.52;1.30;;;34.20;99.90;;;;;;5050267;28;20284;-78
2023/03/16 03:51:35;;;;;;;5.00;1.60;;;34.20;99.90;;;;;;5051117;28;20197;-78
2023/03/16 03:54:06;;;;;;;2.53;1.45;;;34.10;99.90;;;;;;5053107;28;20216;-80
2023/03/16 03:56:37;;;;;;;1.98;1.40;;;34.10;99.90;;;;;;5052501;28;20189;-84
2023/03/16 03:59:08;;;;;;;2.58;1.65;;;34.20;99.90;;;;;;5052214;28;20201;-78
2023/03/16 04:01:41;;;;;;;2.53;1.50;;;34.20;99.90;;;;;;5045557;28;20212;-77
2023/03/16 04:04:12;;;;;;;3.63;1.95;;;34.20;99.90;;;;;;5044553;28;20220;-78
2023/03/16 04:06:43;;;;;;;2.03;1.40;;;34.40;99.90;;;;;;5051393;28;20204;-79
2023/03/16 04:09:14;;;;;;;1.85;1.35;;;34.50;99.90;;;;;;5061370;28;20189;-78
2023/03/16 04:11:47;;;;;;;1.85;1.40;;;34.40;99.90;;;;;;5047853;28;20200;-77
2023/03/16 04:14:18;;;;;;;1.30;1.20;;;34.30;99.90;;;;;;5055733;28;20196;-77
2023/03/16 04:16:51;;;;;;;3.53;1.20;;;34.30;99.90;;;;;;5054498;28;20204;-77
2023/03/16 04:19:22;;;;;;;2.28;1.10;;;34.30;99.90;;;;;;5056253;28;20670;-81
2023/03/16 04:21:53;;;;;;;2.83;1.20;;;34.30;99.90;;;;;;5053372;28;20204;-77
2023/03/16 04:24:25;;;;;;;3.85;1.23;;;34.30;99.90;;;;;;5051998;28;20217;-78
2023/03/16 04:26:58;;;;;;;1.60;1.05;;;34.20;99.90;;;;;;5043012;28;20193;-77
2023/03/16 04:29:30;;;;;;;1.95;1.08;;;34.20;99.90;;;;;;5056101;28;20197;-78
2023/03/16 04:32:03;;;;;;;3.08;1.40;;;34.10;99.90;;;;;;5052265;28;20256;-77
2023/03/16 04:34:35;;;;;;;3.20;1.40;;;34.20;99.90;;;;;;5051149;28;20895;-77
2023/03/16 04:37:06;;;;;;;3.47;1.23;;;34.50;99.90;;;;;;5054460;28;20663;-78
2023/03/16 04:39:37;;;;;;;1.63;0.85;;;34.80;99.90;;;;;;5049730;28;20575;-76
2023/03/16 04:42:09;;;;;;;1.58;0.60;;;34.90;99.90;;;;;;5058543;28;20700;-78
2023/03/16 04:44:43;;;;;;;2.63;0.68;;;35.00;99.90;;;;;;5052050;28;20193;-77
2023/03/16 04:47:17;;;;;;;1.17;0.47;;;35.20;99.90;;;;;;5050153;28;20759;-83
2023/03/16 04:49:49;;;;;;;3.05;0.60;;;35.40;99.90;;;;;;5057687;28;20192;-80
2023/03/16 04:52:20;;;;;;;2.30;0.65;;;35.60;99.90;;;;;;5058440;28;20192;-77
2023/03/16 04:54:51;;;;;;;3.58;0.50;;;35.80;99.90;;;;;;5051546;28;20193;-77
2023/03/16 04:57:22;;;;;;;4.20;0.80;;;36.00;99.90;;;;;;5056525;28;20208;-79
2023/03/16 04:59:54;;;;;;;2.47;0.57;;;36.00;99.90;;;;;;5064694;28;20197;-77
2023/03/16 05:02:27;;;;;;;2.47;1.00;;;35.90;99.90;;;;;;5055124;28;20679;-78
2023/03/16 05:04:58;;;;;;;2.78;0.60;;;36.00;99.90;;;;;;5060392;28;20197;-78
2023/03/16 05:07:30;;;;;;;0.70;0.40;;;36.10;99.90;;;;;;5050673;28;20200;-76
2023/03/16 05:10:01;;;;;;;1.00;0.60;;;36.20;99.90;;;;;;5053796;28;20196;-79
2023/03/16 05:12:32;;;;;;;2.40;0.73;;;36.20;99.80;;;;;;5055150;28;20185;-76
2023/03/16 05:15:03;;;;;;;2.10;0.45;;;36.10;99.90;;;;;;5068954;28;20211;-75
2023/03/16 05:17:36;;;;;;;2.80;0.50;;;36.10;99.10;;;;;;5059834;28;20189;-81
2023/03/16 05:20:11;;;;;;;2.15;0.50;;;36.10;98.80;;;;;;5053842;28;20193;-79
2023/03/16 05:22:44;;;;;;;1.23;0.50;;;36.20;99.00;;;;;;5053795;28;20189;-78
2023/03/16 05:25:15;;;;;;;0.85;0.43;;;36.10;99.10;;;;;;5059683;28;20208;-76
2023/03/16 05:27:47;;;;;;;1.83;0.50;;;36.10;97.20;;;;;;5053342;28;20228;-76
2023/03/16 05:30:20;;;;;;;3.47;0.52;;;36.10;98.20;;;;;;5043022;28;20211;-78
2023/03/16 05:32:54;;;;;;;2.25;0.60;;;36.00;98.40;;;;;;5055650;28;20211;-78
2023/03/16 05:35:25;;;;;;;2.00;0.50;;;36.10;97.60;;;;;;5070358;28;20270;-77
2023/03/16 05:37:56;;;;;;;0.85;0.55;;;36.20;98.50;;;;;;5048516;28;20569;-76
2023/03/16 05:40:27;;;;;;;2.45;0.70;;;36.20;97.00;;;;;;5049472;28;20204;-76
2023/03/16 05:42:59;;;;;;;1.23;0.50;;;36.20;97.10;;;;;;5052908;28;20636;-76
2023/03/16 05:45:30;;;;;;;1.30;0.50;;;36.20;96.90;;;;;;5054701;28;20200;-77
2023/03/16 05:48:04;;;;;;;1.45;0.55;;;36.20;96.90;;;;;;5059447;28;20192;-75
2023/03/16 05:50:35;;;;;;;1.75;0.60;;;36.20;96.60;;;;;;5055494;28;20199;-75
2023/03/16 05:53:06;;;;;;;0.90;0.57;;;36.20;96.50;;;;;;5054963;28;20194;-75
2023/03/16 05:55:37;;;;;;;1.67;0.40;;;36.10;96.70;;;;;;5050956;28;20197;-74
2023/03/16 05:58:08;;;;;;;3.13;0.50;;;36.00;96.50;;;;;;5051260;28;20204;-76
2023/03/16 06:00:40;;;;;;;0.95;0.50;;;36.00;96.80;;;;;;5046333;28;20189;-76
2023/03/16 06:03:13;;;;;;;3.70;0.50;;;35.90;96.10;;;;;;5051005;28;20298;-74
2023/03/16 06:05:44;;;;;;;1.42;0.43;;;35.90;96.20;;;;;;5052222;28;20189;-78
2023/03/16 06:08:15;;;;;;;2.88;0.57;;;35.90;97.10;;;;;;5051691;28;20201;-76
2023/03/16 06:10:47;;;;;;;1.13;0.50;;;35.90;96.00;;;;;;5050313;28;20192;-75
2023/03/16 06:13:19;;;;;;;2.05;0.40;;;35.90;96.00;;;;;;5049915;28;20211;-75
2023/03/16 06:15:50;;;;;;;1.00;0.40;;;35.90;96.10;;;;;;5049397;28;20646;-75
2023/03/16 06:18:23;;;;;;;1.45;0.60;;;35.90;96.20;;;;;;5051298;28;20193;-75
2023/03/16 06:20:54;;;;;;;2.28;0.50;;;35.90;95.80;;;;;;5052383;28;20197;-77
2023/03/16 06:23:26;;;;;;;0.88;0.30;;;35.90;96.00;;;;;;5036448;28;20227;-76
2023/03/16 06:25:58;;;;;;;0.57;0.50;;;35.80;95.70;;;;;;5051301;28;20189;-75
2023/03/16 06:28:29;;;;;;;1.48;0.60;;;35.70;96.30;;;;;;5053003;28;20270;-76
2023/03/16 06:31:01;;;;;;;0.50;0.50;;;35.60;95.60;;;;;;5049605;28;20220;-76
2023/03/16 06:33:34;;;;;;;2.60;0.55;;;35.70;95.50;;;;;;5049361;28;20240;-78
2023/03/16 06:36:05;;;;;;;1.02;0.55;;;35.70;94.90;;;;;;5049885;28;20212;-75
2023/03/16 06:38:36;;;;;;;1.10;0.60;;;35.70;95.10;;;;;;5050211;28;20702;-76
2023/03/16 06:41:07;;;;;;;2.25;0.50;;;35.70;95.30;;;;;;5052952;28;20547;-79
2023/03/16 06:43:38;;;;;;;0.90;0.57;;;35.60;95.80;;;;;;5050743;28;20220;-75
2023/03/16 06:46:09;;;;;;;3.03;0.60;;;35.60;95.60;;;;;;5049735;28;20197;-78
2023/03/16 06:48:43;;;;;;;1.30;0.45;;;35.70;94.70;;;;;;5049466;28;20193;-77
2023/03/16 06:51:14;;;;;;;1.23;0.50;;;35.70;94.30;;;;;;5050746;28;20211;-76
2023/03/16 06:53:45;;;;;;;1.73;0.80;;;35.70;94.80;;;;;;5052487;28;20196;-77
2023/03/16 06:56:16;;;;;;;0.57;0.57;;;35.60;94.70;;;;;;5050896;28;20197;-75
2023/03/16 06:58:47;;;;;;;1.88;0.60;;;35.50;94.60;;;;;;5050746;28;20197;-75
2023/03/16 07:01:18;;;;;;;1.25;0.60;;;35.50;95.00;;;;;;5052332;28;20189;-76
2023/03/16 07:03:51;;;;;;;1.27;0.60;;;35.40;95.00;;;;;;5048614;28;20224;-76
2023/03/16 07:06:22;;;;;;;3.63;0.70;;;35.30;94.70;;;;;;5051683;28;20205;-75
2023/03/16 07:08:53;;;;;;;2.58;0.75;;;35.20;95.00;;;;;;5054885;28;20204;-75
2023/03/16 07:11:24;;;;;;;2.10;0.60;;;35.10;94.90;;;;;;5049871;28;20204;-76
2023/03/16 07:13:55;;;;;;;2.60;0.70;;;35.10;94.30;;;;;;5053379;28;20256;-75
2023/03/16 07:16:26;;;;;;;1.25;0.70;;;35.10;94.30;;;;;;5052088;28;20208;-77
2023/03/16 07:18:59;;;;;;;2.25;0.80;;;35.00;94.30;;;;;;5055513;28;20201;-78
2023/03/16 07:21:37;;;;;;;2.20;0.70;;;34.90;94.10;;;;;;5051186;28;20208;-76
2023/03/16 07:24:09;;;;;;;1.77;0.95;;;34.80;94.00;;;;;;5055248;28;20278;-75
2023/03/16 07:26:40;;;;;;;1.25;0.90;;;34.80;94.00;;;;;;5049506;28;20660;-76
2023/03/16 07:29:12;;;;;;;1.45;0.90;;;34.70;94.10;;;;;;5054401;28;20193;-76
2023/03/16 07:31:43;;;;;;;1.17;0.90;;;34.70;94.30;;;;;;5054230;28;20279;-79
2023/03/16 07:34:17;;;;;;;2.65;0.80;;;34.50;94.50;;;;;;5052710;28;20241;-76
2023/03/16 07:36:48;;;;;;;1.25;0.82;;;34.40;94.90;;;;;;5056082;28;20203;-77
2023/03/16 07:39:20;;;;;;;1.33;0.73;;;34.20;94.60;;;;;;5055326;28;20251;-76
2023/03/16 07:41:51;;;;;;;1.38;0.70;;;34.20;95.00;;;;;;5053163;28;20216;-76
2023/03/16 07:44:22;;;;;;;2.35;0.80;;;34.10;95.50;;;;;;5054685;28;20217;-76
2023/03/16 07:46:53;;;;;;;2.50;1.08;;;33.90;95.50;;;;;;5054687;28;20197;-76
2023/03/16 07:49:26;;;;;;;2.72;0.80;;;33.80;96.00;;;;;;5052863;28;20212;-76
2023/03/16 07:51:57;;;;;;;1.88;0.90;;;33.70;95.50;;;;;;5054795;28;20640;-76
2023/03/16 07:54:29;;;;;;;1.92;0.75;;;33.80;95.60;;;;;;5048001;28;20198;-77
2023/03/16 07:57:00;;;;;;;1.98;0.80;;;33.70;95.80;;;;;;5050095;28;20190;-77
2023/03/16 07:59:31;;;;;;;2.70;0.70;;;33.70;95.20;;;;;;5054342;28;20205;-77
2023/03/16 08:02:02;;;;;;;2.45;1.00;;;33.70;95.30;;;;;;5050817;28;20204;-76
2023/03/16 08:04:37;;;;;;;3.30;0.80;;;33.60;95.90;;;;;;5062129;28;20270;-78
2023/03/16 08:07:08;;;;;;;2.85;0.80;;;33.40;95.10;;;;;;5053750;28;20203;-76
2023/03/16 08:09:39;;;;;;;1.15;0.75;;;33.40;95.10;;;;;;5058981;28;20196;-75
2023/03/16 08:12:11;;;;;;;2.10;0.70;;;33.30;95.30;;;;;;5053882;28;20193;-76
2023/03/16 08:14:44;;;;;;;1.52;0.80;;;33.10;95.80;;;;;;5063204;28;20205;-75
2023/03/16 08:17:15;;;;;;;1.40;0.90;;;32.90;95.70;;;;;;5054349;28;20240;-78
2023/03/16 08:19:48;;;;;;;1.90;0.98;;;32.80;96.30;;;;;;5057885;28;20197;-76
2023/03/16 08:22:19;;;;;;;1.10;0.90;;;32.50;97.20;;;;;;5054184;28;20193;-75
2023/03/16 08:24:50;;;;;;;3.20;1.10;;;32.40;96.70;;;;;;5061887;28;20577;-75
2023/03/16 08:27:21;;;;;;;1.70;1.05;;;32.20;96.60;;;;;;5056293;28;20642;-75
2023/03/16 08:29:55;;;;;;;2.97;0.93;;;32.10;96.50;;;;;;5057961;28;20671;-76
2023/03/16 08:32:27;;;;;;;2.17;1.13;;;32.20;96.10;;;;;;5058179;28;21209;-76
2023/03/16 08:35:00;;;;;;;7.95;1.10;;;32.30;95.80;;;;;;5061389;28;20715;-76
2023/03/16 08:37:32;;;;;;;3.15;1.10;;;32.30;95.80;;;;;;5054504;28;20197;-78
2023/03/16 08:40:04;;;;;;;3.17;1.10;;;32.30;95.70;;;;;;5061847;28;20224;-76
2023/03/16 08:42:35;;;;;;;5.72;1.15;;;32.30;95.80;;;;;;5053867;28;20796;-75
2023/03/16 08:45:10;;;;;;;2.28;1.00;;;32.20;95.90;;;;;;5053539;28;20217;-76
2023/03/16 08:47:42;;;;;;;2.50;0.82;;;32.20;95.80;;;;;;5049113;28;20666;-76
2023/03/16 08:50:16;;;;;;;2.17;1.05;;;32.10;96.20;;;;;;5054512;28;20194;-75
2023/03/16 08:52:47;;;;;;;4.20;1.17;;;32.00;96.30;;;;;;5053944;28;20252;-75
2023/03/16 08:55:18;;;;;;;3.13;1.40;;;32.00;96.60;;;;;;5056731;28;20190;-76
2023/03/16 08:57:49;;;;;;;8.70;1.30;;;32.00;95.80;;;;;;5062429;28;20204;-76
2023/03/16 09:00:21;;;;;;;3.28;0.80;;;32.10;95.60;;;;;;5054420;28;20194;-75
2023/03/16 09:02:53;;;;;;;1.23;0.88;;;32.10;95.60;;;;;;5053473;28;20209;-76
2023/03/16 09:05:26;;;;;;;5.03;1.10;;;32.20;95.60;;;;;;5055572;28;20225;-76
2023/03/16 09:07:57;;;;;;;3.22;0.85;;;32.20;95.30;;;;;;5055591;28;20202;-76
2023/03/16 09:10:31;;;;;;;2.78;0.85;;;32.20;95.20;;;;;;5053486;28;20216;-76
2023/03/16 09:13:02;;;;;;;3.28;0.70;;;32.20;95.30;;;;;;5056152;28;20198;-76
2023/03/16 09:15:33;;;;;;;1.15;0.80;;;32.20;95.30;;;;;;5053840;28;20201;-76
2023/03/16 09:18:05;;;;;;;2.40;0.70;;;32.10;95.40;;;;;;5056134;28;20627;-75
2023/03/16 09:20:38;;;;;;;2.20;0.50;;;32.00;95.50;;;;;;5055976;28;20200;-75
2023/03/16 09:23:09;;;;;;;6.03;0.90;;;31.90;95.70;;;;;;5056864;28;20270;-76
2023/03/16 09:25:40;;;;;;;4.30;0.90;;;31.80;95.80;;;;;;5056977;28;20244;-76
2023/03/16 09:28:11;;;;;;;1.63;0.80;;;31.70;95.90;;;;;;5050294;28;20204;-77
2023/03/16 09:30:42;;;;;;;2.17;0.82;;;31.60;96.00;;;;;;5054720;28;20205;-77
2023/03/16 09:33:13;;;;;;;2.42;0.80;;;31.50;96.20;;;;;;5050738;28;20356;-78
2023/03/16 09:35:47;;;;;;;2.05;0.70;;;31.30;96.30;;;;;;5058390;28;20209;-76
2023/03/16 09:38:18;;;;;;;2.47;0.80;;;31.30;96.30;;;;;;5056229;28;20201;-76
2023/03/16 09:40:57;;;;;;;3.70;0.80;;;31.20;96.50;;;;;;5054504;28;21345;-76
2023/03/16 09:43:53;;;;;;;2.22;0.93;;;31.10;96.70;;;;;;5058043;28;20222;-77
2023/03/16 09:46:29;;;;;;;0.95;0.80;;;31.00;96.80;;;;;;5054751;28;20197;-76
2023/03/16 09:49:01;;;;;;;1.25;0.90;;;31.00;96.70;;;;;;5052633;28;20201;-76
2023/03/16 09:51:43;;;;;;;1.80;1.00;;;30.90;96.60;;;;;;5048645;28;20281;-75
2023/03/16 09:54:22;;;;;;;1.75;0.70;;;30.90;96.60;;;;;;5033318;28;20209;-77
2023/03/16 09:56:55;;;;;;;2.28;0.60;;;30.90;96.50;;;;;;5043371;28;20189;-76
2023/03/16 09:59:27;;;;;;;2.28;0.80;;;30.90;96.60;;;;;;5033605;28;20195;-76
2023/03/16 10:02:13;;;;;;;3.30;0.70;;;30.80;96.60;;;;;;5051233;28;20657;-76
2023/03/16 10:04:52;;;;;;;2.90;0.70;;;30.80;96.50;;;;;;5052004;28;20213;-78
2023/03/16 10:07:37;;;;;;;3.72;0.68;;;30.80;96.60;;;;;;5044738;28;20196;-75
2023/03/16 10:10:34;;;;;;;3.35;0.73;;;30.70;96.50;;;;;;5052309;28;20189;-76
2023/03/16 10:13:07;;;;;;;1.10;0.70;;;30.70;96.50;;;;;;5033782;28;20194;-76
2023/03/16 10:15:39;;;;;;;1.08;0.50;;;30.70;96.60;;;;;;5053279;28;20189;-76
2023/03/16 10:18:15;;;;;;;1.40;0.70;;;30.60;96.50;;;;;;5051664;28;20197;-75
2023/03/16 10:20:47;;;;;;;3.38;0.70;;;30.60;96.30;;;;;;5053265;28;20204;-75
2023/03/16 10:23:24;;;;;;;0.63;0.50;;;30.60;96.40;;;;;;5050187;28;20200;-75
2023/03/16 10:25:56;;;;;;;3.03;0.70;;;30.60;96.20;;;;;;5046388;28;20232;-76
2023/03/16 10:28:30;;;;;;;3.63;0.60;;;30.60;96.30;;;;;;5051999;28;20201;-76
2023/03/16 10:31:03;;;;;;;2.75;0.60;;;30.60;95.90;;;;;;5056513;28;20727;-78
2023/03/16 10:33:36;;;;;;;1.55;0.52;;;30.60;95.60;;;;;;5053004;28;20233;-77
2023/03/16 10:36:14;;;;;;;3.33;0.70;;;30.60;95.90;;;;;;5058712;28;20814;-76
2023/03/16 10:38:49;;;;;;;3.92;1.13;;;30.50;96.20;;;;;;5073231;28;20188;-75
2023/03/16 10:41:28;;;;;;;2.53;0.65;;;30.40;95.90;;;;;;5073987;28;20248;-75
2023/03/16 10:44:05;;;;;;;1.90;1.00;;;30.40;95.70;;;;;;5056060;28;20196;-75
2023/03/16 10:46:40;;;;;;;2.08;0.80;;;30.30;95.70;;;;;;5060114;28;20294;-76
2023/03/16 10:49:24;;;;;;;0.88;0.50;;;30.20;95.20;;;;;;5056445;28;20229;-74
2023/03/16 10:51:56;;;;;;;1.10;0.60;;;30.20;95.50;;;;;;5060230;28;20656;-75
2023/03/16 10:54:32;;;;;;;3.55;0.60;;;30.10;95.60;;;;;;5056438;28;20204;-74
2023/03/16 10:57:16;;;;;;;1.05;0.40;;;30.10;95.50;;;;;;5065644;28;20196;-75
2023/03/16 10:59:52;;;;;;;0.85;0.50;;;30.10;95.30;;;;;;5056108;28;20193;-74
2023/03/16 11:02:26;;;;;;;3.38;0.70;;;30.10;95.00;;;;;;5057645;28;20197;-76
2023/03/16 11:04:57;;;;;;;1.45;0.70;;;30.10;94.60;;;;;;5055983;28;20220;-75
2023/03/16 11:07:28;;;;;;;1.52;0.52;;;30.10;95.10;;;;;;5046933;28;20198;-75
2023/03/16 11:10:01;;;;;;;2.33;0.60;;;30.10;94.70;;;;;;5059565;28;20201;-75
2023/03/16 11:12:34;;;;;;;1.83;0.40;;;30.10;94.60;;;;;;5056431;28;20194;-76
2023/03/16 11:15:07;;;;;;;0.90;0.50;;;30.10;94.40;;;;;;5056480;28;20185;-74
2023/03/16 11:17:40;;;;;;;0.60;0.40;;;30.10;94.50;;;;;;5063587;28;20276;-74
2023/03/16 11:20:17;;;;;;;2.15;0.50;;;30.00;94.90;;;;;;5064528;28;20587;-75
2023/03/16 11:22:50;;;;;;;3.33;0.80;;;30.00;94.70;;;;;;5056306;28;20242;-75
2023/03/16 11:25:29;;;;;;;1.90;0.47;;;30.00;94.60;;;;;;5057571;28;20220;-76
2023/03/16 11:28:13;;;;;;;1.50;0.70;;;29.90;95.10;;;;;;5056385;28;20227;-75
2023/03/16 11:30:49;;;;;;;0.50;0.50;;;29.90;94.70;;;;;;5055712;28;20652;-75
2023/03/16 11:33:20;;;;;;;1.73;0.60;;;29.80;94.50;;;;;;5056529;28;20590;-75
2023/03/16 11:36:02;;;;;;;2.13;0.57;;;29.80;94.90;;;;;;5055749;28;20229;-75
2023/03/16 11:38:42;;;;;;;4.35;0.60;;;29.80;94.50;;;;;;5055909;28;20190;-76
2023/03/16 11:41:21;;;;;;;0.90;0.60;;;29.80;94.50;;;;;;5055659;28;20222;-75
2023/03/16 11:43:56;;;;;;;2.17;0.90;;;29.70;94.40;;;;;;5051124;28;20201;-75
2023/03/16 11:46:29;;;;;;;2.30;0.70;;;29.70;94.40;;;;;;5066205;28;20216;-76
2023/03/16 11:49:26;;;;;;;3.92;0.70;;;29.70;94.30;;;;;;5075660;28;20189;-76
2023/03/16 11:52:05;;;;;;;3.90;0.70;;;29.70;94.20;;;;;;5056417;28;20562;-75
2023/03/16 11:54:51;;;;;;;1.15;0.50;;;29.70;94.40;;;;;;5055840;28;20645;-74
2023/03/16 11:57:39;;;;;;;1.50;0.55;;;29.70;94.20;;;;;;5061801;28;20208;-77
2023/03/16 12:00:24;;;;;;;1.23;0.52;;;29.60;94.00;;;;;;5058242;28;20193;-75
2023/03/16 12:03:21;;;;;;;4.72;0.60;;;29.60;94.10;;;;;;5053914;28;20205;-75
2023/03/16 12:06:00;;;;;;;1.95;0.40;;;29.50;94.00;;;;;;5049646;28;20229;-75
2023/03/16 12:08:53;;;;;;;0.30;0.30;;;29.50;94.10;;;;;;5054383;28;20189;-75
2023/03/16 12:11:29;;;;;;;2.75;0.47;;;29.40;94.40;;;;;;5044689;28;20209;-74
2023/03/16 12:14:16;;;;;;;1.20;0.38;;;29.30;94.50;;;;;;5054892;28;20198;-76
2023/03/16 12:16:51;;;;;;;2.00;0.50;;;29.20;94.60;;;;;;5052579;28;20251;-74
2023/03/16 12:19:29;;;;;;;0.77;0.50;;;29.20;94.80;;;;;;5054999;28;20208;-74
2023/03/16 12:22:09;;;;;;;1.08;0.50;;;29.10;95.40;;;;;;5057505;28;20288;-75
2023/03/16 12:24:45;;;;;;;3.13;0.45;;;29.00;95.10;;;;;;5066224;28;20201;-75
2023/03/16 12:27:21;;;;;;;3.58;0.60;;;28.90;95.00;;;;;;5056717;28;20281;-75
2023/03/16 12:30:26;;;;;;;0.73;0.45;;;28.90;95.40;;;;;;5052755;28;20201;-74
2023/03/16 12:33:03;;;;;;;2.38;0.50;;;28.70;96.00;;;;;;5055735;28;20231;-75
2023/03/16 12:35:44;;;;;;;1.00;0.55;;;28.60;96.30;;;;;;5056106;28;20200;-75
2023/03/16 12:38:27;;;;;;;2.58;0.60;;;28.50;96.50;;;;;;5072060;28;20188;-76
2023/03/16 12:41:10;;;;;;;1.02;0.50;;;28.30;96.70;;;;;;5072145;28;20221;-75
2023/03/16 12:43:54;;;;;;;1.48;0.50;;;28.20;97.00;;;;;;5054759;28;20190;-77
2023/03/16 12:46:32;;;;;;;3.63;0.47;;;28.10;97.50;;;;;;5054501;28;20699;-75
2023/03/16 12:49:06;;;;;;;0.88;0.55;;;28.00;97.70;;;;;;5054764;28;20189;-76
2023/03/16 12:51:38;;;;;;;1.08;0.50;;;27.90;97.90;;;;;;5061520;28;20189;-75
2023/03/16 12:54:20;;;;;;;1.65;0.52;;;27.90;98.20;;;;;;5074647;28;20193;-77
2023/03/16 12:56:53;;;;;;;1.98;0.60;;;27.80;98.50;;;;;;5074515;28;20648;-75
2023/03/16 12:59:26;;;;;;;2.65;0.80;;;27.70;98.70;;;;;;5057076;28;20582;-75
2023/03/16 13:02:01;;;;;;;1.92;0.50;;;27.60;99.10;;;;;;5054730;28;20197;-76
2023/03/16 13:04:35;;;;;;;1.95;0.70;;;27.50;99.10;;;;;;5060265;28;20200;-75
2023/03/16 13:07:08;;;;;;;1.27;0.77;;;27.50;99.50;;;;;;5054580;28;20220;-76
2023/03/16 13:09:43;;;;;;;1.33;0.60;;;27.40;99.70;;;;;;5054792;28;20197;-76
2023/03/16 13:12:26;;;;;;;3.72;0.98;;;27.30;99.80;;;;;;5053762;28;20574;-78
2023/03/16 13:14:57;;;;;;;2.42;0.85;;;27.20;99.90;;;;;;5050387;28;20558;-75
2023/03/16 13:17:32;;;;;;;2.25;0.82;;;27.10;99.90;;;;;;5053836;28;20209;-75
2023/03/16 13:20:25;;;;;;;2.00;0.82;;;27.10;99.90;;;;;;5053047;28;20197;-75
2023/03/16 13:23:21;;;;;;;1.77;0.90;;;27.00;99.90;;;;;;5066666;28;20256;-74